sensor_id;sensor_type;location;lat;lon;timestamp;P1;durP1;ratioP1;P2;durP2;ratioP2
75342;SDS011;63936;51.006;13.764;2022-11-15T00:00:02;26;;;16;;
75342;SDS011;63936;51.006;13.764;2022-11-15T00:02:01;26;;;15;;
75342;SDS011;63936;51.006;13.764;2022-11-15T00:04:01;29;;;17;;
75342;SDS011;63936;51.006;13.764;2022-11-15T00:06:02;30;;;17;;
75342;SDS011;63936;51.006;13.764;2022-11-15T00:08:01;28;;;16;;
75342;SDS011;63936;51.006;13.764;2022-11-15T00:10:02;28;;;15;;
75342;SDS011;63936;51.006;13.764;2022-11-15T00:12:02;23;;;13;;
75342;SDS011;63936;51.006;13.764;2022-11-15T00:14:01;25;;;14;;
75342;SDS011;63936;51.006;13.764;2022-11-15T00:16:01;25;;;14;;
75342;SDS011;63936;51.006;13.764;2022-11-15T00:18:01;26;;;16;;
75342;SDS011;63936;51.006;13.764;2022-11-15T00:20:02;30;;;18;;
75342;SDS011;63936;51.006;13.764;2022-11-15T00:22:01;28;;;17;;
75342;SDS011;63936;51.006;13.764;2022-11-15T00:24:01;26;;;16;;
75342;SDS011;63936;51.006;13.764;2022-11-15T00:26:01;28;;;17;;
75342;SDS011;63936;51.006;13.764;2022-11-15T00:28:01;29;;;17;;
75342;SDS011;63936;51.006;13.764;2022-11-15T00:30:02;29;;;17;;
75342;SDS011;63936;51.006;13.764;2022-11-15T00:32:01;31;;;18;;
75342;SDS011;63936;51.006;13.764;2022-11-15T00:34:01;30;;;17;;
75342;SDS011;63936;51.006;13.764;2022-11-15T00:36:02;33;;;19;;
75342;SDS011;63936;51.006;13.764;2022-11-15T00:38:02;33;;;19;;
75342;SDS011;63936;51.006;13.764;2022-11-15T00:40:01;33;;;18;;
75342;SDS011;63936;51.006;13.764;2022-11-15T00:42:01;30;;;18;;
75342;SDS011;63936;51.006;13.764;2022-11-15T00:44:01;33;;;18;;
75342;SDS011;63936;51.006;13.764;2022-11-15T00:46:01;30;;;17;;
75342;SDS011;63936;51.006;13.764;2022-11-15T00:48:01;28;;;16;;
75342;SDS011;63936;51.006;13.764;2022-11-15T00:50:02;30;;;18;;
75342;SDS011;63936;51.006;13.764;2022-11-15T00:52:02;30;;;17;;
75342;SDS011;63936;51.006;13.764;2022-11-15T00:54:02;27;;;16;;
75342;SDS011;63936;51.006;13.764;2022-11-15T00:56:01;34;;;18;;
75342;SDS011;63936;51.006;13.764;2022-11-15T00:58:01;33;;;19;;
75342;SDS011;63936;51.006;13.764;2022-11-15T01:00:01;25;;;15;;
75342;SDS011;63936;51.006;13.764;2022-11-15T01:02:03;27;;;17;;
75342;SDS011;63936;51.006;13.764;2022-11-15T01:04:04;31;;;19;;
75342;SDS011;63936;51.006;13.764;2022-11-15T01:06:05;28;;;17;;
75342;SDS011;63936;51.006;13.764;2022-11-15T01:08:02;28;;;17;;
75342;SDS011;63936;51.006;13.764;2022-11-15T01:10:03;33;;;19;;
75342;SDS011;63936;51.006;13.764;2022-11-15T01:12:02;30;;;17;;
75342;SDS011;63936;51.006;13.764;2022-11-15T01:14:02;28;;;17;;
75342;SDS011;63936;51.006;13.764;2022-11-15T01:16:07;20;;;13;;
75342;SDS011;63936;51.006;13.764;2022-11-15T01:18:02;23;;;14;;
75342;SDS011;63936;51.006;13.764;2022-11-15T01:20:04;30;;;18;;
75342;SDS011;63936;51.006;13.764;2022-11-15T01:22:02;30;;;18;;
75342;SDS011;63936;51.006;13.764;2022-11-15T01:24:01;34;;;20;;
75342;SDS011;63936;51.006;13.764;2022-11-15T01:26:03;29;;;17;;
75342;SDS011;63936;51.006;13.764;2022-11-15T01:28:02;32;;;17;;
75342;SDS011;63936;51.006;13.764;2022-11-15T01:30:04;30;;;18;;
75342;SDS011;63936;51.006;13.764;2022-11-15T01:32:02;32;;;18;;
75342;SDS011;63936;51.006;13.764;2022-11-15T01:34:02;33;;;18;;
75342;SDS011;63936;51.006;13.764;2022-11-15T01:36:03;36;;;19;;
75342;SDS011;63936;51.006;13.764;2022-11-15T01:38:01;33;;;18;;
75342;SDS011;63936;51.006;13.764;2022-11-15T01:40:03;27;;;15;;
75342;SDS011;63936;51.006;13.764;2022-11-15T01:42:01;30;;;17;;
75342;SDS011;63936;51.006;13.764;2022-11-15T01:45:05;30;;;17;;
75342;SDS011;63936;51.006;13.764;2022-11-15T01:46:03;31;;;18;;
75342;SDS011;63936;51.006;13.764;2022-11-15T01:48:02;35;;;20;;
75342;SDS011;63936;51.006;13.764;2022-11-15T01:50:03;31;;;17;;
75342;SDS011;63936;51.006;13.764;2022-11-15T01:52:03;31;;;16;;
75342;SDS011;63936;51.006;13.764;2022-11-15T01:54:03;32;;;17;;
75342;SDS011;63936;51.006;13.764;2022-11-15T01:56:01;32;;;18;;
75342;SDS011;63936;51.006;13.764;2022-11-15T01:58:02;31;;;19;;
75342;SDS011;63936;51.006;13.764;2022-11-15T02:00:03;33;;;18;;
75342;SDS011;63936;51.006;13.764;2022-11-15T02:02:02;32;;;17;;
75342;SDS011;63936;51.006;13.764;2022-11-15T02:04:04;31;;;17;;
75342;SDS011;63936;51.006;13.764;2022-11-15T02:06:01;28;;;16;;
75342;SDS011;63936;51.006;13.764;2022-11-15T02:08:01;30;;;18;;
75342;SDS011;63936;51.006;13.764;2022-11-15T02:10:04;28;;;17;;
75342;SDS011;63936;51.006;13.764;2022-11-15T02:12:01;32;;;17;;
75342;SDS011;63936;51.006;13.764;2022-11-15T02:14:01;34;;;18;;
75342;SDS011;63936;51.006;13.764;2022-11-15T02:16:03;33;;;18;;
75342;SDS011;63936;51.006;13.764;2022-11-15T02:18:07;33;;;18;;
75342;SDS011;63936;51.006;13.764;2022-11-15T02:20:11;27;;;15;;
75342;SDS011;63936;51.006;13.764;2022-11-15T02:22:04;28;;;15;;
75342;SDS011;63936;51.006;13.764;2022-11-15T02:24:06;29;;;16;;
75342;SDS011;63936;51.006;13.764;2022-11-15T02:26:06;28;;;15;;
75342;SDS011;63936;51.006;13.764;2022-11-15T02:28:06;23;;;14;;
75342;SDS011;63936;51.006;13.764;2022-11-15T02:30:04;25;;;15;;
75342;SDS011;63936;51.006;13.764;2022-11-15T02:32:02;21;;;12;;
75342;SDS011;63936;51.006;13.764;2022-11-15T02:34:04;27;;;16;;
75342;SDS011;63936;51.006;13.764;2022-11-15T02:36:02;34;;;19;;
75342;SDS011;63936;51.006;13.764;2022-11-15T02:38:03;31;;;17;;
75342;SDS011;63936;51.006;13.764;2022-11-15T02:40:04;32;;;19;;
75342;SDS011;63936;51.006;13.764;2022-11-15T02:42:02;27;;;17;;
75342;SDS011;63936;51.006;13.764;2022-11-15T02:44:03;30;;;18;;
75342;SDS011;63936;51.006;13.764;2022-11-15T02:46:03;32;;;19;;
75342;SDS011;63936;51.006;13.764;2022-11-15T02:48:02;32;;;18;;
75342;SDS011;63936;51.006;13.764;2022-11-15T02:50:03;31;;;18;;
75342;SDS011;63936;51.006;13.764;2022-11-15T02:52:01;31;;;17;;
75342;SDS011;63936;51.006;13.764;2022-11-15T02:54:01;31;;;17;;
75342;SDS011;63936;51.006;13.764;2022-11-15T02:56:01;32;;;17;;
75342;SDS011;63936;51.006;13.764;2022-11-15T02:58:10;30;;;17;;
75342;SDS011;63936;51.006;13.764;2022-11-15T03:00:03;28;;;13;;
75342;SDS011;63936;51.006;13.764;2022-11-15T03:02:05;29;;;15;;
75342;SDS011;63936;51.006;13.764;2022-11-15T03:04:02;33;;;18;;
75342;SDS011;63936;51.006;13.764;2022-11-15T03:06:09;33;;;19;;
75342;SDS011;63936;51.006;13.764;2022-11-15T03:08:03;28;;;16;;
75342;SDS011;63936;51.006;13.764;2022-11-15T03:10:05;30;;;17;;
75342;SDS011;63936;51.006;13.764;2022-11-15T03:12:03;30;;;16;;
75342;SDS011;63936;51.006;13.764;2022-11-15T03:14:02;29;;;16;;
75342;SDS011;63936;51.006;13.764;2022-11-15T03:16:03;30;;;16;;
75342;SDS011;63936;51.006;13.764;2022-11-15T03:18:03;30;;;17;;
75342;SDS011;63936;51.006;13.764;2022-11-15T03:20:03;23;;;13;;
75342;SDS011;63936;51.006;13.764;2022-11-15T03:22:02;27;;;16;;
75342;SDS011;63936;51.006;13.764;2022-11-15T03:24:03;35;;;18;;
75342;SDS011;63936;51.006;13.764;2022-11-15T03:26:01;33;;;18;;
75342;SDS011;63936;51.006;13.764;2022-11-15T03:28:01;28;;;16;;
75342;SDS011;63936;51.006;13.764;2022-11-15T03:30:02;31;;;16;;
75342;SDS011;63936;51.006;13.764;2022-11-15T03:32:02;29;;;14;;
75342;SDS011;63936;51.006;13.764;2022-11-15T03:34:02;29;;;16;;
75342;SDS011;63936;51.006;13.764;2022-11-15T03:36:01;30;;;16;;
75342;SDS011;63936;51.006;13.764;2022-11-15T03:38:04;29;;;15;;
75342;SDS011;63936;51.006;13.764;2022-11-15T03:40:02;33;;;18;;
75342;SDS011;63936;51.006;13.764;2022-11-15T03:42:04;30;;;17;;
75342;SDS011;63936;51.006;13.764;2022-11-15T03:44:04;27;;;15;;
75342;SDS011;63936;51.006;13.764;2022-11-15T03:46:03;28;;;16;;
75342;SDS011;63936;51.006;13.764;2022-11-15T03:48:02;27;;;15;;
75342;SDS011;63936;51.006;13.764;2022-11-15T03:50:02;29;;;16;;
75342;SDS011;63936;51.006;13.764;2022-11-15T03:52:01;30;;;15;;
75342;SDS011;63936;51.006;13.764;2022-11-15T03:54:02;28;;;14;;
75342;SDS011;63936;51.006;13.764;2022-11-15T03:56:01;25;;;14;;
75342;SDS011;63936;51.006;13.764;2022-11-15T03:58:01;25;;;15;;
75342;SDS011;63936;51.006;13.764;2022-11-15T04:00:02;28;;;15;;
75342;SDS011;63936;51.006;13.764;2022-11-15T04:02:01;29;;;15;;
75342;SDS011;63936;51.006;13.764;2022-11-15T04:04:02;27;;;16;;
75342;SDS011;63936;51.006;13.764;2022-11-15T04:06:04;28;;;16;;
75342;SDS011;63936;51.006;13.764;2022-11-15T04:08:01;23;;;12;;
75342;SDS011;63936;51.006;13.764;2022-11-15T04:10:02;23;;;13;;
75342;SDS011;63936;51.006;13.764;2022-11-15T04:12:02;29;;;15;;
75342;SDS011;63936;51.006;13.764;2022-11-15T04:14:02;27;;;14;;
75342;SDS011;63936;51.006;13.764;2022-11-15T04:16:02;24;;;14;;
75342;SDS011;63936;51.006;13.764;2022-11-15T04:18:02;23;;;13;;
75342;SDS011;63936;51.006;13.764;2022-11-15T04:20:02;25;;;15;;
75342;SDS011;63936;51.006;13.764;2022-11-15T04:22:02;23;;;14;;
75342;SDS011;63936;51.006;13.764;2022-11-15T04:24:02;23;;;13;;
75342;SDS011;63936;51.006;13.764;2022-11-15T04:26:01;25;;;15;;
75342;SDS011;63936;51.006;13.764;2022-11-15T04:28:01;27;;;16;;
75342;SDS011;63936;51.006;13.764;2022-11-15T04:30:01;24;;;14;;
75342;SDS011;63936;51.006;13.764;2022-11-15T04:32:01;25;;;15;;
75342;SDS011;63936;51.006;13.764;2022-11-15T04:34:01;26;;;15;;
75342;SDS011;63936;51.006;13.764;2022-11-15T04:36:01;27;;;15;;
75342;SDS011;63936;51.006;13.764;2022-11-15T04:38:02;26;;;15;;
75342;SDS011;63936;51.006;13.764;2022-11-15T04:40:02;24;;;13;;
75342;SDS011;63936;51.006;13.764;2022-11-15T04:42:02;27;;;14;;
75342;SDS011;63936;51.006;13.764;2022-11-15T04:44:02;24;;;13;;
75342;SDS011;63936;51.006;13.764;2022-11-15T04:46:02;23;;;13;;
75342;SDS011;63936;51.006;13.764;2022-11-15T04:48:02;25;;;12;;
75342;SDS011;63936;51.006;13.764;2022-11-15T04:50:02;29;;;14;;
75342;SDS011;63936;51.006;13.764;2022-11-15T04:52:01;26;;;14;;
75342;SDS011;63936;51.006;13.764;2022-11-15T04:54:01;27;;;14;;
75342;SDS011;63936;51.006;13.764;2022-11-15T04:56:01;23;;;13;;
75342;SDS011;63936;51.006;13.764;2022-11-15T04:58:01;23;;;13;;
75342;SDS011;63936;51.006;13.764;2022-11-15T05:00:02;29;;;16;;
75342;SDS011;63936;51.006;13.764;2022-11-15T05:02:01;29;;;16;;
75342;SDS011;63936;51.006;13.764;2022-11-15T05:04:01;26;;;15;;
75342;SDS011;63936;51.006;13.764;2022-11-15T05:06:01;25;;;14;;
75342;SDS011;63936;51.006;13.764;2022-11-15T05:08:02;18;;;12;;
75342;SDS011;63936;51.006;13.764;2022-11-15T05:10:02;16;;;10;;
75342;SDS011;63936;51.006;13.764;2022-11-15T05:12:01;19;;;11;;
75342;SDS011;63936;51.006;13.764;2022-11-15T05:14:01;24;;;13;;
75342;SDS011;63936;51.006;13.764;2022-11-15T05:16:01;25;;;15;;
75342;SDS011;63936;51.006;13.764;2022-11-15T05:18:01;25;;;13;;
75342;SDS011;63936;51.006;13.764;2022-11-15T05:20:02;27;;;14;;
75342;SDS011;63936;51.006;13.764;2022-11-15T05:22:01;27;;;14;;
75342;SDS011;63936;51.006;13.764;2022-11-15T05:24:01;19;;;11;;
75342;SDS011;63936;51.006;13.764;2022-11-15T05:26:02;19;;;11;;
75342;SDS011;63936;51.006;13.764;2022-11-15T05:28:02;19;;;11;;
75342;SDS011;63936;51.006;13.764;2022-11-15T05:30:02;14;;;7;;
75342;SDS011;63936;51.006;13.764;2022-11-15T05:32:02;14;;;7;;
75342;SDS011;63936;51.006;13.764;2022-11-15T05:34:02;21;;;11;;
75342;SDS011;63936;51.006;13.764;2022-11-15T05:36:02;21;;;11;;
75342;SDS011;63936;51.006;13.764;2022-11-15T05:38:01;23;;;13;;
75342;SDS011;63936;51.006;13.764;2022-11-15T05:40:02;29;;;15;;
75342;SDS011;63936;51.006;13.764;2022-11-15T05:42:02;23;;;13;;
75342;SDS011;63936;51.006;13.764;2022-11-15T05:44:01;23;;;13;;
75342;SDS011;63936;51.006;13.764;2022-11-15T05:46:01;21;;;11;;
75342;SDS011;63936;51.006;13.764;2022-11-15T05:48:03;27;;;14;;
75342;SDS011;63936;51.006;13.764;2022-11-15T05:50:02;27;;;14;;
75342;SDS011;63936;51.006;13.764;2022-11-15T05:52:02;25;;;14;;
75342;SDS011;63936;51.006;13.764;2022-11-15T05:54:03;27;;;14;;
75342;SDS011;63936;51.006;13.764;2022-11-15T05:56:03;27;;;14;;
75342;SDS011;63936;51.006;13.764;2022-11-15T05:58:02;22;;;12;;
75342;SDS011;63936;51.006;13.764;2022-11-15T06:00:03;22;;;12;;
75342;SDS011;63936;51.006;13.764;2022-11-15T06:02:02;21;;;12;;
75342;SDS011;63936;51.006;13.764;2022-11-15T06:04:03;31;;;18;;
75342;SDS011;63936;51.006;13.764;2022-11-15T06:06:02;29;;;15;;
75342;SDS011;63936;51.006;13.764;2022-11-15T06:08:02;29;;;15;;
75342;SDS011;63936;51.006;13.764;2022-11-15T06:10:02;26;;;14;;
75342;SDS011;63936;51.006;13.764;2022-11-15T06:12:03;20;;;13;;
75342;SDS011;63936;51.006;13.764;2022-11-15T06:14:01;20;;;13;;
75342;SDS011;63936;51.006;13.764;2022-11-15T06:16:02;24;;;13;;
75342;SDS011;63936;51.006;13.764;2022-11-15T06:18:02;24;;;13;;
75342;SDS011;63936;51.006;13.764;2022-11-15T06:20:01;28;;;13;;
75342;SDS011;63936;51.006;13.764;2022-11-15T06:22:01;28;;;13;;
75342;SDS011;63936;51.006;13.764;2022-11-15T06:24:02;24;;;14;;
75342;SDS011;63936;51.006;13.764;2022-11-15T06:26:02;24;;;14;;
75342;SDS011;63936;51.006;13.764;2022-11-15T06:28:02;25;;;13;;
75342;SDS011;63936;51.006;13.764;2022-11-15T06:30:03;29;;;13;;
75342;SDS011;63936;51.006;13.764;2022-11-15T06:32:02;29;;;13;;
75342;SDS011;63936;51.006;13.764;2022-11-15T06:34:01;24;;;12;;
75342;SDS011;63936;51.006;13.764;2022-11-15T06:36:02;24;;;12;;
75342;SDS011;63936;51.006;13.764;2022-11-15T06:38:03;20;;;12;;
75342;SDS011;63936;51.006;13.764;2022-11-15T06:40:02;20;;;12;;
75342;SDS011;63936;51.006;13.764;2022-11-15T06:42:01;29;;;14;;
75342;SDS011;63936;51.006;13.764;2022-11-15T06:44:01;24;;;13;;
75342;SDS011;63936;51.006;13.764;2022-11-15T06:46:02;24;;;13;;
75342;SDS011;63936;51.006;13.764;2022-11-15T06:48:02;30;;;16;;
75342;SDS011;63936;51.006;13.764;2022-11-15T06:50:04;25;;;14;;
75342;SDS011;63936;51.006;13.764;2022-11-15T06:52:01;29;;;15;;
75342;SDS011;63936;51.006;13.764;2022-11-15T06:54:02;28;;;16;;
75342;SDS011;63936;51.006;13.764;2022-11-15T06:56:02;28;;;16;;
75342;SDS011;63936;51.006;13.764;2022-11-15T06:58:02;16;;;10;;
75342;SDS011;63936;51.006;13.764;2022-11-15T07:00:02;25;;;12;;
75342;SDS011;63936;51.006;13.764;2022-11-15T07:02:02;25;;;12;;
75342;SDS011;63936;51.006;13.764;2022-11-15T07:04:01;29;;;17;;
75342;SDS011;63936;51.006;13.764;2022-11-15T07:06:02;24;;;15;;
75342;SDS011;63936;51.006;13.764;2022-11-15T07:08:02;23;;;12;;
75342;SDS011;63936;51.006;13.764;2022-11-15T07:10:03;23;;;12;;
75342;SDS011;63936;51.006;13.764;2022-11-15T07:12:01;30;;;15;;
75342;SDS011;63936;51.006;13.764;2022-11-15T07:14:01;34;;;17;;
75342;SDS011;63936;51.006;13.764;2022-11-15T07:16:02;30;;;16;;
75342;SDS011;63936;51.006;13.764;2022-11-15T07:18:02;30;;;16;;
75342;SDS011;63936;51.006;13.764;2022-11-15T07:20:02;25;;;11;;
75342;SDS011;63936;51.006;13.764;2022-11-15T07:22:01;25;;;11;;
75342;SDS011;63936;51.006;13.764;2022-11-15T07:24:01;25;;;13;;
75342;SDS011;63936;51.006;13.764;2022-11-15T07:26:02;26;;;15;;
75342;SDS011;63936;51.006;13.764;2022-11-15T07:28:01;26;;;15;;
75342;SDS011;63936;51.006;13.764;2022-11-15T07:30:02;34;;;17;;
75342;SDS011;63936;51.006;13.764;2022-11-15T07:32:02;20;;;13;;
75342;SDS011;63936;51.006;13.764;2022-11-15T07:34:01;20;;;13;;
75342;SDS011;63936;51.006;13.764;2022-11-15T07:36:03;36;;;17;;
75342;SDS011;63936;51.006;13.764;2022-11-15T07:38:02;36;;;17;;
75342;SDS011;63936;51.006;13.764;2022-11-15T07:40:02;32;;;18;;
75342;SDS011;63936;51.006;13.764;2022-11-15T07:42:02;23;;;13;;
75342;SDS011;63936;51.006;13.764;2022-11-15T07:44:02;23;;;13;;
75342;SDS011;63936;51.006;13.764;2022-11-15T07:46:04;27;;;13;;
75342;SDS011;63936;51.006;13.764;2022-11-15T07:48:01;31;;;17;;
75342;SDS011;63936;51.006;13.764;2022-11-15T07:50:02;26;;;14;;
75342;SDS011;63936;51.006;13.764;2022-11-15T07:52:02;32;;;19;;
75342;SDS011;63936;51.006;13.764;2022-11-15T07:54:02;32;;;19;;
75342;SDS011;63936;51.006;13.764;2022-11-15T07:56:01;32;;;19;;
75342;SDS011;63936;51.006;13.764;2022-11-15T07:58:01;28;;;16;;
75342;SDS011;63936;51.006;13.764;2022-11-15T08:00:03;26;;;15;;
75342;SDS011;63936;51.006;13.764;2022-11-15T08:02:02;26;;;15;;
75342;SDS011;63936;51.006;13.764;2022-11-15T08:04:02;26;;;15;;
75342;SDS011;63936;51.006;13.764;2022-11-15T08:06:02;27;;;16;;
75342;SDS011;63936;51.006;13.764;2022-11-15T08:08:02;27;;;16;;
75342;SDS011;63936;51.006;13.764;2022-11-15T08:10:03;30;;;18;;
75342;SDS011;63936;51.006;13.764;2022-11-15T08:12:03;29;;;18;;
75342;SDS011;63936;51.006;13.764;2022-11-15T08:14:01;29;;;18;;
75342;SDS011;63936;51.006;13.764;2022-11-15T08:16:02;30;;;19;;
75342;SDS011;63936;51.006;13.764;2022-11-15T08:18:02;27;;;18;;
75342;SDS011;63936;51.006;13.764;2022-11-15T08:20:06;26;;;16;;
75342;SDS011;63936;51.006;13.764;2022-11-15T08:22:02;26;;;18;;
75342;SDS011;63936;51.006;13.764;2022-11-15T08:24:02;25;;;16;;
75342;SDS011;63936;51.006;13.764;2022-11-15T08:26:02;26;;;16;;
75342;SDS011;63936;51.006;13.764;2022-11-15T08:28:02;26;;;18;;
75342;SDS011;63936;51.006;13.764;2022-11-15T08:30:02;28;;;20;;
75342;SDS011;63936;51.006;13.764;2022-11-15T08:32:02;28;;;20;;
75342;SDS011;63936;51.006;13.764;2022-11-15T08:34:03;23;;;16;;
75342;SDS011;63936;51.006;13.764;2022-11-15T08:36:01;24;;;18;;
75342;SDS011;63936;51.006;13.764;2022-11-15T08:38:01;24;;;19;;
75342;SDS011;63936;51.006;13.764;2022-11-15T08:40:02;24;;;19;;
75342;SDS011;63936;51.006;13.764;2022-11-15T08:42:01;22;;;17;;
75342;SDS011;63936;51.006;13.764;2022-11-15T08:44:01;23;;;17;;
75342;SDS011;63936;51.006;13.764;2022-11-15T08:46:01;21;;;15;;
75342;SDS011;63936;51.006;13.764;2022-11-15T08:48:01;23;;;18;;
75342;SDS011;63936;51.006;13.764;2022-11-15T08:50:02;23;;;18;;
75342;SDS011;63936;51.006;13.764;2022-11-15T08:52:01;22;;;17;;
75342;SDS011;63936;51.006;13.764;2022-11-15T08:54:01;23;;;18;;
75342;SDS011;63936;51.006;13.764;2022-11-15T08:56:02;22;;;17;;
75342;SDS011;63936;51.006;13.764;2022-11-15T08:58:02;22;;;17;;
75342;SDS011;63936;51.006;13.764;2022-11-15T09:00:03;22;;;16;;
75342;SDS011;63936;51.006;13.764;2022-11-15T09:02:02;22;;;16;;
75342;SDS011;63936;51.006;13.764;2022-11-15T09:04:02;25;;;20;;
75342;SDS011;63936;51.006;13.764;2022-11-15T09:06:01;24;;;19;;
75342;SDS011;63936;51.006;13.764;2022-11-15T09:08:01;25;;;19;;
75342;SDS011;63936;51.006;13.764;2022-11-15T09:10:05;23;;;19;;
75342;SDS011;63936;51.006;13.764;2022-11-15T09:12:01;23;;;20;;
75342;SDS011;63936;51.006;13.764;2022-11-15T09:14:01;23;;;20;;
75342;SDS011;63936;51.006;13.764;2022-11-15T09:16:02;23;;;20;;
75342;SDS011;63936;51.006;13.764;2022-11-15T09:18:02;23;;;19;;
75342;SDS011;63936;51.006;13.764;2022-11-15T09:20:02;23;;;20;;
75342;SDS011;63936;51.006;13.764;2022-11-15T09:22:03;23;;;20;;
75342;SDS011;63936;51.006;13.764;2022-11-15T09:24:01;23;;;20;;
75342;SDS011;63936;51.006;13.764;2022-11-15T09:26:02;23;;;20;;
75342;SDS011;63936;51.006;13.764;2022-11-15T09:28:05;23;;;20;;
75342;SDS011;63936;51.006;13.764;2022-11-15T09:30:02;23;;;20;;
75342;SDS011;63936;51.006;13.764;2022-11-15T09:32:01;22;;;18;;
75342;SDS011;63936;51.006;13.764;2022-11-15T09:34:02;22;;;18;;
75342;SDS011;63936;51.006;13.764;2022-11-15T09:36:03;23;;;19;;
75342;SDS011;63936;51.006;13.764;2022-11-15T09:38:02;23;;;19;;
75342;SDS011;63936;51.006;13.764;2022-11-15T09:40:05;22;;;19;;
75342;SDS011;63936;51.006;13.764;2022-11-15T09:42:06;22;;;19;;
75342;SDS011;63936;51.006;13.764;2022-11-15T09:44:06;23;;;19;;
75342;SDS011;63936;51.006;13.764;2022-11-15T09:46:04;23;;;19;;
75342;SDS011;63936;51.006;13.764;2022-11-15T09:48:06;22;;;19;;
75342;SDS011;63936;51.006;13.764;2022-11-15T09:50:07;23;;;19;;
75342;SDS011;63936;51.006;13.764;2022-11-15T09:52:01;24;;;20;;
75342;SDS011;63936;51.006;13.764;2022-11-15T09:54:04;23;;;19;;
75342;SDS011;63936;51.006;13.764;2022-11-15T09:56:02;27;;;20;;
75342;SDS011;63936;51.006;13.764;2022-11-15T09:58:03;27;;;20;;
75342;SDS011;63936;51.006;13.764;2022-11-15T10:00:06;24;;;20;;
75342;SDS011;63936;51.006;13.764;2022-11-15T10:02:03;23;;;20;;
75342;SDS011;63936;51.006;13.764;2022-11-15T10:04:02;23;;;19;;
75342;SDS011;63936;51.006;13.764;2022-11-15T10:06:01;24;;;20;;
75342;SDS011;63936;51.006;13.764;2022-11-15T10:08:11;24;;;20;;
75342;SDS011;63936;51.006;13.764;2022-11-15T10:10:04;24;;;20;;
75342;SDS011;63936;51.006;13.764;2022-11-15T10:12:01;23;;;19;;
75342;SDS011;63936;51.006;13.764;2022-11-15T10:14:02;23;;;20;;
75342;SDS011;63936;51.006;13.764;2022-11-15T10:16:03;23;;;20;;
75342;SDS011;63936;51.006;13.764;2022-11-15T10:18:04;23;;;20;;
75342;SDS011;63936;51.006;13.764;2022-11-15T10:20:06;23;;;20;;
75342;SDS011;63936;51.006;13.764;2022-11-15T10:22:05;22;;;19;;
75342;SDS011;63936;51.006;13.764;2022-11-15T10:24:06;24;;;19;;
75342;SDS011;63936;51.006;13.764;2022-11-15T10:26:01;24;;;18;;
75342;SDS011;63936;51.006;13.764;2022-11-15T10:28:04;22;;;19;;
75342;SDS011;63936;51.006;13.764;2022-11-15T10:30:01;22;;;19;;
75342;SDS011;63936;51.006;13.764;2022-11-15T10:32:01;22;;;18;;
75342;SDS011;63936;51.006;13.764;2022-11-15T10:34:09;23;;;20;;
75342;SDS011;63936;51.006;13.764;2022-11-15T10:36:17;23;;;20;;
75342;SDS011;63936;51.006;13.764;2022-11-15T10:38:05;23;;;20;;
75342;SDS011;63936;51.006;13.764;2022-11-15T10:40:03;25;;;21;;
75342;SDS011;63936;51.006;13.764;2022-11-15T10:42:14;25;;;21;;
75342;SDS011;63936;51.006;13.764;2022-11-15T10:44:03;24;;;20;;
75342;SDS011;63936;51.006;13.764;2022-11-15T10:46:09;24;;;20;;
75342;SDS011;63936;51.006;13.764;2022-11-15T10:48:18;24;;;21;;
75342;SDS011;63936;51.006;13.764;2022-11-15T10:50:04;22;;;20;;
75342;SDS011;63936;51.006;13.764;2022-11-15T10:52:01;25;;;22;;
75342;SDS011;63936;51.006;13.764;2022-11-15T10:54:01;25;;;22;;
75342;SDS011;63936;51.006;13.764;2022-11-15T10:56:03;25;;;22;;
75342;SDS011;63936;51.006;13.764;2022-11-15T10:58:02;25;;;22;;
75342;SDS011;63936;51.006;13.764;2022-11-15T11:00:03;24;;;22;;
75342;SDS011;63936;51.006;13.764;2022-11-15T11:02:01;26;;;22;;
75342;SDS011;63936;51.006;13.764;2022-11-15T11:04:02;22;;;19;;
75342;SDS011;63936;51.006;13.764;2022-11-15T11:06:03;22;;;19;;
75342;SDS011;63936;51.006;13.764;2022-11-15T11:08:03;23;;;21;;
75342;SDS011;63936;51.006;13.764;2022-11-15T11:10:03;24;;;20;;
75342;SDS011;63936;51.006;13.764;2022-11-15T11:12:02;23;;;21;;
75342;SDS011;63936;51.006;13.764;2022-11-15T11:14:10;23;;;20;;
75342;SDS011;63936;51.006;13.764;2022-11-15T11:16:19;22;;;20;;
75342;SDS011;63936;51.006;13.764;2022-11-15T11:18:02;23;;;21;;
75342;SDS011;63936;51.006;13.764;2022-11-15T11:20:02;23;;;21;;
75342;SDS011;63936;51.006;13.764;2022-11-15T11:22:02;23;;;20;;
75342;SDS011;63936;51.006;13.764;2022-11-15T11:24:03;23;;;20;;
75342;SDS011;63936;51.006;13.764;2022-11-15T11:26:05;23;;;21;;
75342;SDS011;63936;51.006;13.764;2022-11-15T11:28:06;22;;;20;;
75342;SDS011;63936;51.006;13.764;2022-11-15T11:30:03;23;;;20;;
75342;SDS011;63936;51.006;13.764;2022-11-15T11:32:03;23;;;21;;
75342;SDS011;63936;51.006;13.764;2022-11-15T11:34:04;24;;;21;;
75342;SDS011;63936;51.006;13.764;2022-11-15T11:36:05;23;;;21;;
75342;SDS011;63936;51.006;13.764;2022-11-15T11:38:15;24;;;21;;
75342;SDS011;63936;51.006;13.764;2022-11-15T11:40:05;23;;;20;;
75342;SDS011;63936;51.006;13.764;2022-11-15T11:42:03;23;;;21;;
75342;SDS011;63936;51.006;13.764;2022-11-15T11:44:05;22;;;20;;
75342;SDS011;63936;51.006;13.764;2022-11-15T11:46:05;22;;;20;;
75342;SDS011;63936;51.006;13.764;2022-11-15T11:48:03;23;;;21;;
75342;SDS011;63936;51.006;13.764;2022-11-15T11:50:02;23;;;20;;
75342;SDS011;63936;51.006;13.764;2022-11-15T11:52:02;24;;;21;;
75342;SDS011;63936;51.006;13.764;2022-11-15T11:54:03;23;;;21;;
75342;SDS011;63936;51.006;13.764;2022-11-15T11:56:02;23;;;21;;
75342;SDS011;63936;51.006;13.764;2022-11-15T11:58:04;23;;;21;;
75342;SDS011;63936;51.006;13.764;2022-11-15T12:00:04;23;;;20;;
75342;SDS011;63936;51.006;13.764;2022-11-15T12:02:01;22;;;20;;
75342;SDS011;63936;51.006;13.764;2022-11-15T12:04:03;22;;;20;;
75342;SDS011;63936;51.006;13.764;2022-11-15T12:06:02;22;;;20;;
75342;SDS011;63936;51.006;13.764;2022-11-15T12:08:03;23;;;20;;
75342;SDS011;63936;51.006;13.764;2022-11-15T12:10:03;25;;;21;;
75342;SDS011;63936;51.006;13.764;2022-11-15T12:12:04;23;;;20;;
75342;SDS011;63936;51.006;13.764;2022-11-15T12:14:03;23;;;20;;
75342;SDS011;63936;51.006;13.764;2022-11-15T12:16:03;23;;;20;;
75342;SDS011;63936;51.006;13.764;2022-11-15T12:18:02;23;;;20;;
75342;SDS011;63936;51.006;13.764;2022-11-15T12:20:02;23;;;20;;
75342;SDS011;63936;51.006;13.764;2022-11-15T12:22:02;22;;;19;;
75342;SDS011;63936;51.006;13.764;2022-11-15T12:24:02;22;;;18;;
75342;SDS011;63936;51.006;13.764;2022-11-15T12:26:02;21;;;19;;
75342;SDS011;63936;51.006;13.764;2022-11-15T12:28:01;21;;;18;;
75342;SDS011;63936;51.006;13.764;2022-11-15T12:30:02;21;;;19;;
75342;SDS011;63936;51.006;13.764;2022-11-15T12:32:01;21;;;18;;
75342;SDS011;63936;51.006;13.764;2022-11-15T12:34:01;21;;;18;;
75342;SDS011;63936;51.006;13.764;2022-11-15T12:36:02;19;;;15;;